Date,TemperatureHighF,TemperatureAvgF,TemperatureLowF,DewpointHighF,DewpointAvgF,DewpointLowF,HumidityHigh,HumidityAvg,HumidityLow,PressureMaxIn,PressureMinIn,WindSpeedMaxMPH,WindSpeedAvgMPH,GustSpeedMaxMPH,PrecipitationSumIn
2013-1-1,67,55,47,50,38,29,85,55,33,18.32,18.32,6,1,7,0.00
2013-1-2,76,57,53,56,46,31,93,72,22,18.32,18.32,8,1,8,0.12
2013-1-3,54,49,43,39,34,26,72,58,39,18.32,18.32,9,1,9,0.00
2013-1-4,69,45,34,37,26,12,90,54,17,18.32,18.32,11,1,11,0.00
2013-1-5,67,44,29,24,16,10,66,35,15,18.32,18.32,6,0,6,0.00
2013-1-6,54,48,42,39,30,17,79,49,28,18.32,18.32,11,2,13,0.00
2013-1-7,72,44,34,34,24,14,86,51,14,18.32,18.32,13,1,13,0.59
2013-1-8,70,46,34,34,29,24,74,53,23,18.32,18.32,7,1,8,0.00
2013-1-9,73,56,43,50,40,34,84,58,31,18.32,18.32,6,1,6,0.00
2013-1-10,94,63,50,58,46,28,91,62,12,18.32,18.32,9,1,10,0.00
2013-1-11,84,67,62,66,56,43,92,70,26,18.32,18.32,10,1,10,0.59
2013-1-12,94,68,59,60,50,35,91,58,14,18.32,18.32,13,1,13,0.00
2013-1-13,85,68,62,58,51,44,82,57,27,18.32,18.32,15,2,15,0.59
2013-1-14,88,69,62,57,51,38,82,56,19,18.32,18.32,15,2,15,0.59
2013-1-15,85,69,60,56,49,38,85,53,21,18.32,18.32,12,1,12,0.00
2013-1-16,85,69,64,62,53,44,89,59,29,18.32,18.32,13,2,13,0.04
2013-1-17,72,58,43,64,49,26,91,74,40,18.32,18.32,20,4,20,0.43
2013-1-18,78,44,34,36,23,7,89,50,13,18.32,18.32,12,2,12,0.59
2013-1-19,77,46,30,29,20,13,68,40,13,18.32,18.32,7,1,8,0.00
2013-1-20,80,53,40,31,24,16,61,35,13,18.32,18.32,11,2,11,0.59
2013-1-21,71,52,39,26,19,6,59,30,14,18.32,18.32,13,3,15,0.00
2013-1-22,64,43,35,17,5,1,25,21,16,18.32,18.32,15,4,15,0.00
2013-1-23,69,44,31,24,9,-1,38,24,15,18.32,18.32,17,4,17,0.59
2013-1-24,73,52,35,32,20,0,54,30,14,18.32,18.32,17,4,17,0.59
2013-1-25,41,36,29,12,3,-6,32,25,20,18.32,18.32,9,1,9,0.00
2013-1-26,77,48,38,25,20,12,55,35,13,18.32,18.32,8,1,9,0.59
2013-1-27,83,47,34,24,18,11,59,34,12,18.32,18.32,8,2,9,0.00
2013-1-28,71,50,43,39,28,14,75,43,23,18.32,18.32,6,1,6,0.59
2013-1-29,54,46,44,47,40,38,84,80,75,18.32,18.32,5,0,5,0.00
2013-2-1,42,37,32,2,0,-2,23,21,18,18.32,18.32,8,1,8,0.00
2013-2-2,79,43,25,28,10,-3,49,28,12,18.32,18.32,10,1,10,0.00
2013-2-3,71,49,38,33,21,10,73,38,14,18.32,18.32,21,4,21,0.00
2013-2-4,45,39,37,20,16,13,48,39,28,18.32,18.32,8,2,8,0.00
2013-2-7,49,48,46,47,46,44,94,93,91,18.32,18.32,13,5,13,1.46
2013-2-8,65,51,45,44,39,33,94,65,33,18.32,18.32,14,2,14,0.00
2013-2-9,92,46,33,37,26,12,88,55,10,30.32,18.32,9,1,9,0.00
2013-2-10,80,54,40,52,31,18,82,44,20,30.41,30.14,10,2,10,0.24
2013-2-11,68,61,56,58,54,50,92,81,58,30.23,30.08,11,2,11,1.18
2013-2-12,69,56,49,53,41,23,91,64,20,30.14,29.91,8,1,8,0.75
2013-2-13,59,52,47,52,43,30,90,74,45,29.93,29.76,17,2,17,0.08
2013-2-14,57,45,37,34,29,21,80,56,27,30.11,29.93,9,1,9,0.00
2013-2-15,89,49,33,43,28,14,91,57,10,30.14,29.99,8,1,9,0.00
2013-2-16,62,43,32,38,19,-1,86,42,17,30.11,29.88,24,3,24,0.12
2013-2-17,62,38,27,15,4,-1,32,24,16,30.32,30.11,17,4,17,0.00
2013-2-18,79,44,27,23,11,3,57,29,13,30.41,30.26,8,1,9,0.00
2013-2-19,65,46,38,45,29,12,84,53,27,30.26,29.99,13,2,13,0.24
2013-2-20,79,47,32,23,11,5,42,24,13,30.20,30.08,13,2,13,0.00
2013-2-21,92,52,34,26,15,5,46,25,9,30.23,30.05,6,1,6,0.00
2013-2-22,54,45,41,42,36,19,92,72,28,30.20,30.11,10,2,10,0.79
2013-2-23,48,44,40,45,42,39,94,91,84,30.11,29.88,0,0,0,0.67
2013-2-24,87,56,46,46,33,15,92,54,11,30.02,29.91,10,1,10,0.00
2013-2-25,53,47,42,35,25,17,74,45,26,30.11,29.93,11,2,14,0.00
2013-2-26,55,46,40,49,42,34,93,85,68,29.96,29.61,11,2,11,1.18
2013-2-27,57,44,40,42,29,22,86,56,25,29.91,29.79,14,2,14,0.00
2013-2-28,67,48,39,29,20,13,50,34,16,29.93,29.82,19,4,19,0.00
2013-3-1,67,43,32,19,16,12,54,36,16,29.96,29.85,13,3,13,0.00
2013-3-2,60,40,34,31,20,12,58,44,27,29.91,29.82,15,3,15,0.00
2013-3-3,64,40,32,17,11,3,51,31,16,30.02,29.88,15,4,15,0.00
2013-3-4,78,45,26,22,13,7,51,30,13,30.79,30.02,9,2,10,0.00
2013-3-5,71,55,40,56,30,16,86,41,26,31.62,30.70,25,4,25,0.28
2013-3-6,60,43,35,22,13,6,50,30,17,31.62,31.62,24,7,25,0.00
2013-3-7,76,45,30,27,20,12,76,42,13,31.62,30.17,12,1,12,0.00
2013-3-8,76,48,33,27,18,10,59,33,13,31.62,30.32,11,2,13,0.00
2013-3-9,85,52,35,25,19,13,59,31,11,31.62,27.22,8,1,8,0.00
2013-3-10,82,58,44,39,28,23,56,35,14,0.00,40.00,6,2,8,0.00
2013-3-11,72,60,48,47,37,32,57,43,24,18.33,18.33,14,3,14,0.00
2013-3-12,80,61,51,58,37,15,90,50,14,18.33,18.33,15,3,15,0.24
2013-3-13,70,52,40,22,16,5,45,25,15,18.33,18.33,26,5,26,0.00
2013-3-14,66,45,32,16,10,4,42,25,16,18.33,18.33,13,3,13,0.00
2013-3-15,83,56,35,25,16,6,42,22,12,18.33,18.33,15,3,17,0.00
2013-3-16,86,67,54,30,25,18,38,23,11,18.33,18.33,17,4,18,0.00
2013-3-17,79,66,57,46,36,27,56,34,18,18.33,18.33,14,4,14,0.00
2013-3-18,79,61,49,54,46,41,93,59,29,18.33,18.33,32,2,32,0.79
2013-3-19,81,59,49,50,33,11,95,52,12,18.33,18.33,16,3,16,0.04
2013-3-20,68,54,44,19,13,8,29,20,15,18.33,18.33,11,1,11,0.00
2013-3-21,62,46,37,15,9,4,35,22,16,18.33,18.33,17,5,18,0.00
2013-3-22,59,45,36,22,10,2,36,23,17,18.33,18.33,7,1,7,0.79
2013-3-23,60,50,45,48,35,19,85,59,31,41.51,18.33,10,1,10,0.35
2013-3-24,51,49,47,49,45,40,94,87,71,41.48,40.00,0,0,0,1.77
2013-3-25,56,45,38,45,16,4,91,34,18,41.63,40.00,22,6,22,0.00
2013-3-26,52,41,33,15,12,9,45,31,21,41.63,40.00,17,3,17,0.00
2013-3-27,62,44,30,18,14,9,59,33,16,41.84,29.94,13,3,14,0.00
2013-3-28,69,49,32,20,15,11,56,28,15,29.94,29.94,14,2,14,0.79
2013-3-29,78,54,36,23,17,12,44,25,13,29.94,29.94,10,1,10,0.00
2013-3-30,79,63,50,34,28,18,51,28,15,29.94,29.94,10,2,12,0.00
2013-3-31,81,67,60,56,42,31,74,42,17,29.94,29.94,17,4,22,0.04
2013-4-1,81,66,60,59,42,16,92,52,12,29.94,29.94,15,2,15,0.35
2013-4-2,78,62,48,34,25,17,58,28,13,29.94,29.94,15,3,15,0.00
2013-4-3,71,58,47,31,20,14,42,23,14,29.94,29.94,10,2,10,0.79
2013-4-4,54,46,42,44,39,27,94,77,36,29.94,29.94,12,2,14,0.87
2013-4-5,66,50,39,42,35,28,94,62,28,29.94,29.94,12,1,13,0.00
2013-4-6,84,58,40,46,30,16,92,48,11,29.94,29.94,10,1,10,0.00
2013-4-7,84,63,45,46,35,25,78,38,16,29.94,29.94,10,1,11,0.00
2013-4-8,90,69,54,55,40,27,86,42,13,29.94,29.94,10,1,10,0.00
2013-4-9,95,72,58,55,44,30,79,43,12,29.94,29.94,7,1,8,0.79
2013-4-10,94,73,61,56,47,31,79,47,11,29.94,29.94,11,2,11,0.00
2013-4-19,65,60,52,59,54,43,83,79,65,29.98,29.29,11,2,11,0.08
2013-4-20,75,56,44,45,31,17,82,47,13,30.24,29.98,12,2,12,0.00
2013-4-21,80,59,43,41,31,19,84,42,12,30.36,30.24,11,1,11,0.00
2013-4-22,78,60,51,34,26,18,46,29,13,30.33,30.18,13,2,13,0.00
2013-4-23,85,61,44,42,33,26,67,38,13,30.24,30.09,10,1,10,0.00
2013-4-24,86,68,56,52,45,35,84,49,19,30.18,30.03,13,2,13,0.00
2013-4-25,84,70,57,55,42,24,69,40,14,30.24,30.09,11,2,12,0.00
2013-4-26,87,65,49,43,33,23,57,32,13,30.39,30.24,8,1,8,0.00
2013-4-27,77,64,55,52,43,35,78,48,30,30.36,30.21,8,1,8,0.04
2013-4-28,78,65,58,61,53,41,93,68,42,30.21,30.01,12,1,12,1.81
2013-4-29,78,66,61,65,58,44,93,77,33,30.06,29.95,6,1,8,0.28
2013-4-30,90,69,57,62,52,39,90,61,18,30.12,29.98,8,0,8,0.00
2013-5-1,75,66,59,57,49,40,87,58,31,30.21,30.12,11,1,11,0.00
2013-5-2,76,67,62,57,51,43,78,58,33,30.21,30.12,9,1,9,0.00
2013-5-3,73,64,59,55,50,44,83,61,40,30.15,30.03,8,1,8,0.00
2013-5-4,63,60,54,58,48,36,90,66,40,30.03,29.86,9,0,11,0.51
2013-5-5,80,64,58,61,52,31,91,70,21,29.86,29.77,9,0,10,0.91
2013-5-6,72,60,51,49,38,28,84,49,22,29.95,29.83,12,2,12,0.00
2013-5-7,77,63,52,51,39,28,80,46,18,29.89,29.89,13,2,13,0.00
2013-5-8,86,68,55,47,39,27,74,40,13,29.89,29.89,13,2,13,0.00
2013-5-9,92,74,59,52,43,30,72,38,12,29.89,29.89,10,2,10,0.00
2013-5-10,90,75,61,57,45,34,77,39,15,29.89,29.89,11,1,12,0.00
2013-5-11,86,74,63,56,50,42,71,46,24,29.89,29.89,11,2,11,0.00
2013-5-12,84,71,59,59,39,16,81,39,11,29.89,29.89,13,3,13,0.00
2013-5-13,82,64,49,32,24,17,51,24,12,29.89,29.89,11,2,11,0.00
2013-5-14,87,66,47,38,28,20,65,28,11,29.89,29.89,10,1,10,0.00
2013-5-15,96,77,63,44,37,31,38,25,11,29.89,29.89,14,3,14,0.00
2013-5-16,91,77,67,50,44,34,49,33,15,29.89,29.89,9,2,9,0.00
2013-5-17,92,76,63,57,47,36,72,40,14,29.89,29.89,8,1,9,0.00
2013-5-18,89,75,67,61,52,40,68,47,19,29.89,29.89,8,1,8,0.00
2013-5-19,84,74,69,64,59,51,81,62,33,29.89,29.89,8,1,8,0.00
2013-5-20,92,77,68,67,59,46,87,60,22,29.89,29.89,6,1,6,0.00
2013-5-21,98,76,68,68,57,40,88,58,16,29.89,29.89,8,1,8,0.00
2013-5-22,92,77,66,66,56,43,88,54,20,29.89,29.89,10,1,10,0.00
2013-5-23,92,77,68,66,54,35,88,49,15,29.89,29.89,12,2,12,0.12
2013-5-24,89,74,63,46,35,19,54,28,10,29.89,29.89,19,4,20,0.00
2013-5-25,86,68,51,38,30,22,54,27,11,29.89,29.89,11,1,11,0.00
2013-5-26,89,71,57,46,36,26,61,32,13,29.89,29.89,13,1,13,0.00
2013-5-27,95,76,61,50,41,30,63,33,11,29.89,29.89,11,1,11,0.00
2013-5-28,98,79,64,60,47,37,77,39,13,29.89,29.89,9,1,9,0.00
2013-6-4,79,74,72,60,59,58,66,59,49,0.00,0.00,6,1,6,0.00
2013-6-5,86,76,71,70,65,59,84,71,40,0.00,0.00,7,0,7,0.47
2013-6-6,80,74,70,70,67,62,91,80,59,0.00,0.00,9,1,9,1.14
2013-6-7,91,76,69,73,61,44,94,67,23,0.00,0.00,15,4,15,1.73
2013-6-8,93,78,69,67,58,43,90,57,19,0.00,0.00,9,1,9,0.00
2013-6-9,94,76,70,71,65,54,89,70,27,0.00,0.00,8,0,8,1.73
2013-6-10,87,75,70,73,69,58,90,81,42,0.00,0.00,16,1,16,1.42
2013-6-11,99,82,70,69,61,44,90,57,18,0.00,0.00,11,2,11,0.00
2013-6-12,104,86,73,72,59,39,86,48,12,0.00,0.00,10,1,10,0.00
2013-6-13,98,86,76,69,58,44,76,43,17,29.82,0.00,17,3,17,0.00
2013-6-14,95,80,71,66,48,30,81,38,11,30.03,29.79,13,2,13,0.00
2013-6-15,99,79,64,57,46,31,68,37,10,30.14,30.03,9,0,9,0.00
2013-6-16,99,80,67,61,52,41,71,41,16,30.17,30.06,9,1,9,0.00
2013-6-17,93,78,72,70,60,49,88,55,25,30.11,29.97,8,1,11,0.59
2013-6-18,90,78,71,70,65,54,89,68,30,30.03,29.88,11,2,16,0.08
2013-6-19,86,78,72,70,64,57,87,64,38,30.09,29.91,9,1,10,0.00
2013-6-20,97,79,67,66,52,36,88,47,14,30.20,30.09,8,1,10,0.00
2013-6-21,95,78,66,61,49,36,80,43,14,30.23,30.17,10,2,15,0.00
2013-6-22,97,78,67,68,54,42,91,49,16,30.20,30.11,10,2,11,2.40
2013-6-23,98,78,69,74,64,46,91,66,18,30.20,30.14,8,0,8,0.43
2013-6-24,95,81,72,72,62,45,88,59,20,30.23,30.14,11,1,11,0.16
2013-6-25,95,79,70,69,62,50,88,59,22,30.20,30.06,10,1,10,0.00
2013-6-26,93,79,72,70,66,54,88,67,29,30.09,29.97,10,1,10,0.31
2013-6-27,96,83,75,71,64,54,86,57,27,30.00,29.82,17,3,17,0.00
2013-6-28,101,83,72,68,61,48,85,52,18,29.85,29.67,13,3,13,0.00
2013-6-29,92,80,73,66,62,55,79,56,32,29.76,29.70,13,2,13,0.00
2013-6-30,93,78,70,71,66,53,90,71,29,29.85,29.73,12,1,14,0.31
2013-7-1,90,78,71,69,64,53,90,66,31,29.97,29.82,9,1,9,0.24
2013-7-2,91,78,73,72,67,59,86,71,35,30.14,29.97,8,0,9,0.39
2013-7-3,90,77,72,73,68,56,89,76,34,30.20,30.11,6,0,6,0.35
2013-7-4,89,77,70,76,66,55,90,72,40,30.20,30.11,10,1,10,0.79
2013-7-5,94,79,71,71,65,52,89,66,26,30.23,30.17,11,0,11,0.31
2013-7-6,93,79,73,72,68,56,88,72,31,30.23,30.11,8,1,11,0.47
2013-7-7,96,80,74,74,67,53,90,67,26,30.20,30.09,9,0,9,0.04
2013-7-8,99,80,72,74,64,46,90,63,19,30.20,30.14,9,1,9,0.43
2013-7-9,101,82,73,73,65,53,87,60,22,30.20,30.09,8,0,8,0.08
2013-7-10,90,79,72,74,67,54,89,70,32,30.14,30.00,10,1,10,3.19
2013-8-8,86,83,80,66,61,57,61,48,38,30.06,30.03,4,0,4,3.19
2013-8-9,95,82,76,75,69,55,85,66,29,30.11,30.03,8,1,8,0.12
2013-8-10,101,84,75,72,63,45,87,55,18,30.14,30.06,8,1,8,0.00
2013-8-11,100,85,74,71,60,45,87,50,16,30.17,30.09,10,1,10,0.00
2013-8-12,100,83,76,74,66,47,85,59,17,30.11,30.00,11,1,11,0.24
2013-8-13,97,84,74,73,63,48,89,56,19,30.03,29.88,14,2,14,0.04
2013-8-14,85,78,72,70,63,54,82,62,38,30.06,29.88,8,1,11,0.00
2013-8-15,72,69,65,68,63,58,90,81,64,30.11,30.03,5,0,8,1.02
2013-8-16,69,67,66,66,64,61,92,89,79,30.14,30.06,8,0,8,1.93
2013-8-17,72,68,66,68,65,64,92,89,81,30.17,30.09,6,0,6,0.31
2013-8-18,92,76,70,70,65,53,90,74,29,30.20,30.11,10,0,10,3.19
2013-8-19,84,75,70,72,68,61,91,79,48,30.20,30.09,13,1,13,0.39
2013-8-20,88,77,73,76,69,58,90,77,40,30.20,30.09,8,1,8,1.61
2013-8-21,95,79,73,73,66,53,90,71,27,30.26,30.14,11,0,11,0.00
2013-8-22,98,82,71,75,59,42,90,54,16,30.17,30.06,10,1,10,0.00
2013-8-23,97,81,72,67,62,46,85,56,20,30.09,29.97,10,1,10,0.00
2013-8-24,84,76,71,68,61,52,86,64,34,30.26,30.06,9,1,9,0.00
2013-8-25,89,74,64,64,50,35,87,50,18,30.35,30.26,13,1,13,0.00
2013-8-26,68,67,66,56,54,52,71,64,57,30.32,30.17,0,0,0,0.00
2013-8-27,96,76,62,62,53,41,84,52,16,30.17,30.03,7,0,7,0.00
2013-8-28,98,81,68,65,57,43,81,50,17,30.06,29.97,6,0,8,0.00
2013-8-29,99,84,73,70,62,50,81,52,21,30.00,29.91,8,1,9,0.00
2013-8-30,94,82,76,72,64,54,79,56,28,30.06,29.94,6,0,8,0.00
2013-8-31,96,82,73,72,66,54,86,61,27,30.00,29.88,5,0,8,0.00
2013-9-1,98,84,75,72,62,45,88,54,18,29.97,29.85,10,1,10,0.00
2013-9-2,96,82,72,67,62,48,79,55,22,29.97,29.85,9,1,9,0.00
2013-9-3,97,82,73,69,62,51,80,55,23,30.00,29.88,10,2,10,0.00
2013-9-4,98,81,71,71,59,42,90,55,16,30.09,29.97,0,0,0,0.00
2013-9-5,97,81,71,70,58,39,88,52,16,30.14,30.06,9,1,9,0.00
2013-9-6,94,79,70,66,56,41,86,52,17,30.14,30.06,10,1,12,0.00
2013-9-7,94,77,66,62,54,40,81,52,16,30.11,30.00,9,1,9,0.00
2013-9-8,98,79,67,65,56,42,81,51,16,30.03,29.94,10,1,10,0.00
2013-9-9,101,82,69,67,55,32,85,49,10,30.14,30.00,6,0,6,0.00
2013-9-10,101,81,70,69,56,38,87,50,12,30.26,30.14,6,0,8,0.00
2013-9-11,98,78,67,66,55,31,85,53,11,30.23,30.09,6,0,6,0.00
2013-9-12,98,78,68,72,59,42,90,60,16,30.11,29.91,22,1,22,0.55
2013-9-13,96,79,72,70,57,41,91,54,16,29.91,29.85,10,1,10,0.00
2013-9-14,92,74,63,55,45,39,61,37,17,29.85,29.85,11,2,11,0.00
2013-9-15,99,79,66,65,55,42,75,50,16,29.85,29.85,6,0,6,0.00
2013-9-16,93,81,75,74,63,45,88,60,22,29.85,29.85,11,1,11,0.12
2013-9-17,87,75,68,69,53,38,89,51,19,29.85,29.85,10,1,10,0.16
2013-9-18,85,70,62,55,46,36,68,45,19,29.85,29.85,8,1,9,0.00
2013-9-19,92,72,60,58,49,36,86,51,17,29.85,29.85,8,1,8,0.00
2013-9-20,96,76,65,65,53,40,87,50,16,29.85,29.85,4,0,4,0.00
2013-9-21,87,76,68,70,61,53,88,65,33,29.85,29.85,10,2,10,0.43
2013-9-22,90,72,63,68,51,28,90,56,13,29.85,29.85,11,1,11,0.00
2013-9-23,91,70,59,59,48,34,84,51,15,29.85,29.85,8,1,8,0.00
2013-9-24,86,73,64,56,49,40,69,47,20,29.85,29.85,4,0,6,0.00
2013-9-25,78,70,65,63,56,44,91,63,31,29.85,29.85,8,0,8,0.39
2013-9-26,82,69,64,62,53,36,92,63,21,29.85,29.85,13,2,13,0.00
2013-9-27,90,66,58,56,48,28,88,59,13,30.16,29.53,11,2,13,0.00
2013-9-28,83,66,55,53,43,31,86,50,17,30.24,30.13,12,1,14,0.00
2013-9-29,88,66,56,52,46,35,80,53,18,30.16,30.04,8,0,9,0.00
2013-9-30,87,66,55,56,46,31,88,56,16,30.13,30.04,8,0,8,0.00
2013-10-1,94,69,57,59,48,34,88,55,15,30.19,30.07,8,0,8,0.00
2013-10-2,96,71,58,58,50,34,87,54,14,30.19,30.10,6,0,8,0.00
2013-10-3,102,74,61,62,48,30,85,48,10,30.19,30.10,5,0,6,0.00
2013-10-4,99,74,62,66,52,32,86,55,11,30.19,30.10,6,0,6,0.00
2013-10-5,104,75,62,65,52,33,87,52,9,30.16,30.04,7,0,7,0.00
2013-10-6,103,76,64,69,56,38,89,59,12,30.07,29.92,12,0,12,0.00
2013-10-7,81,76,68,72,67,60,90,76,50,29.98,29.86,7,0,7,1.65
2013-10-8,69,63,58,67,52,48,92,70,58,30.16,29.95,16,2,16,0.08
2013-10-9,87,64,58,49,42,25,70,49,13,30.22,30.10,13,3,13,0.00
2013-10-10,88,64,52,49,42,30,84,50,17,30.16,30.01,11,2,11,0.00
2013-10-11,98,68,56,55,47,30,88,54,11,30.04,29.95,13,1,13,0.00
2013-10-12,103,70,58,60,50,31,87,56,10,30.10,29.98,8,1,10,0.00
2013-10-13,80,70,65,60,56,48,81,63,33,30.19,30.10,10,1,10,0.00
2013-10-14,72,67,64,60,58,52,86,75,50,30.22,30.16,10,1,10,0.00
2013-10-15,81,68,62,59,50,37,80,58,22,30.19,30.07,10,1,10,0.00
2013-10-16,89,68,58,56,51,38,88,60,19,30.10,29.98,8,0,8,0.00
2013-10-17,86,73,63,62,56,44,87,60,24,30.01,29.92,10,1,11,0.00
2013-10-18,88,72,70,66,61,44,88,71,23,30.04,29.92,0,0,0,0.00
2013-10-19,76,69,63,61,49,36,74,52,25,30.01,29.92,10,0,10,0.00
2013-10-20,94,64,54,52,42,26,90,54,12,30.10,29.98,7,0,7,0.00
2013-10-21,75,62,52,52,46,36,86,61,25,30.16,30.04,6,0,6,0.00
2013-10-22,70,64,61,58,53,46,85,68,42,30.07,29.86,5,0,5,0.00
2013-10-23,84,63,50,59,38,16,90,50,12,30.10,29.83,17,3,17,0.00
2013-10-24,87,54,41,34,27,17,69,41,11,30.24,30.10,8,1,8,0.00
2013-10-25,77,51,41,36,28,12,69,46,13,30.36,30.16,11,1,13,0.00
2013-10-26,86,49,39,30,24,15,58,44,11,30.36,30.16,8,1,8,0.00
2013-10-27,86,59,46,45,33,26,57,41,16,30.19,30.10,9,1,11,0.00
2013-10-28,76,64,57,55,46,34,81,56,23,30.30,30.16,6,0,6,0.00
2013-10-29,83,66,65,47,46,34,53,50,19,30.36,30.27,8,1,8,0.00
2013-10-30,96,73,66,45,41,29,47,34,11,30.33,30.19,8,1,8,0.00
2013-10-31,82,78,72,58,44,36,59,33,21,30.22,29.98,14,1,14,0.00
2013-11-1,74,69,65,63,60,56,91,74,59,29.98,29.77,12,2,12,0.98
2013-11-2,65,65,65,62,62,62,91,91,91,30.04,29.80,13,2,13,0.00
2013-11-3,65,65,65,62,62,62,91,91,91,30.33,30.04,11,1,11,0.00
2013-11-4,65,65,65,62,62,62,91,91,91,30.48,30.33,12,1,12,0.00
2013-11-5,65,65,65,62,62,62,91,91,91,30.51,30.39,11,2,11,0.00
2013-11-6,65,65,65,62,62,62,91,91,91,30.39,30.16,8,0,8,0.00
2013-11-7,65,65,65,62,62,62,91,91,91,30.16,30.01,11,2,11,0.00
2013-11-8,65,65,65,62,62,62,91,91,91,30.36,30.16,11,2,11,0.00
2013-11-9,65,65,65,62,62,62,91,91,91,30.39,30.24,6,0,6,0.00
2013-11-10,65,65,65,62,62,62,91,91,91,30.27,30.19,6,0,6,0.00
2013-11-11,65,65,65,62,62,62,91,91,91,30.33,30.19,10,1,10,0.00
2013-11-12,65,65,65,62,62,62,91,91,91,30.45,30.07,22,3,22,0.00
2013-11-13,65,65,65,62,62,62,91,91,91,30.60,30.42,17,3,17,0.00
2013-11-14,65,65,65,62,62,62,91,91,91,30.54,30.36,6,0,6,0.00
2013-11-15,65,65,65,62,62,62,91,91,91,30.36,30.19,4,0,4,0.00
2013-11-16,65,65,65,62,62,62,91,91,91,30.27,30.16,7,0,7,0.00
2013-11-17,65,65,65,62,62,62,91,91,91,30.19,29.98,6,0,7,0.00
2013-11-18,65,65,65,62,62,62,91,91,91,30.01,29.89,17,2,17,0.00
2013-11-19,65,65,65,62,62,62,91,91,91,30.22,30.01,10,2,11,0.00
2013-11-20,65,65,65,62,62,62,91,91,91,30.36,30.19,12,2,12,0.00
2013-11-21,65,65,65,62,62,62,91,91,91,30.42,30.33,6,0,8,0.20
2013-11-22,65,65,65,62,62,62,91,91,91,30.39,30.19,6,0,6,0.00
2013-11-23,65,65,65,62,62,62,91,91,91,30.22,30.07,10,2,13,0.00
2013-11-24,65,65,65,62,62,62,91,91,91,30.51,30.22,12,2,17,0.00
2013-11-25,65,65,65,62,62,62,91,91,91,30.54,30.27,6,1,8,0.00
2013-11-26,65,65,65,62,62,62,91,91,91,30.27,29.65,8,1,10,1.18
2013-11-27,65,65,65,62,62,62,91,91,91,30.27,29.59,12,2,17,0.20
2013-11-28,65,65,65,62,62,62,91,91,91,30.51,30.27,5,0,6,0.00
2013-11-29,65,65,65,62,62,62,91,91,91,30.57,30.45,6,0,7,0.00
2013-11-30,65,65,65,62,62,62,91,91,91,30.60,30.36,11,1,11,0.00
2013-12-1,65,65,65,62,62,62,91,91,91,30.36,30.13,6,0,6,0.00
2013-12-7,83,50,0,9,4,0,16,13,9,30.37,29.77,10,3,10,0.00
2013-12-8,50,47,44,15,11,4,29,23,16,30.40,30.28,8,2,8,0.16
2013-12-9,56,49,44,28,20,13,37,32,28,30.28,30.07,6,0,6,0.28
2013-12-10,69,55,41,47,17,-2,52,25,10,30.37,29.98,22,2,22,0.04
2013-12-11,70,45,34,10,0,-8,17,15,10,30.46,30.34,8,0,9,0.00
2013-12-12,66,44,36,8,-1,-8,17,15,10,30.46,30.31,11,1,11,0.00
2013-12-13,74,46,32,11,-1,-10,18,14,9,30.40,30.22,6,0,6,0.00
2013-12-14,61,53,48,34,16,1,37,24,13,30.25,29.84,13,1,13,1.50
2013-12-15,66,51,38,29,10,-4,38,21,10,30.19,29.84,13,2,13,0.04
2013-12-16,75,46,34,11,0,-6,18,15,9,30.25,30.16,10,1,10,0.00
2013-12-17,76,52,41,11,3,-2,16,13,8,30.25,30.10,14,3,14,0.04
2013-12-18,69,48,39,10,1,-3,16,14,10,30.34,30.13,10,2,10,0.04
2013-12-19,76,48,34,11,0,-9,17,14,8,30.40,30.25,9,1,9,0.04
2013-12-20,73,55,44,22,9,1,28,16,9,30.28,30.19,10,1,11,0.04
2013-12-21,87,66,54,28,16,8,30,17,6,30.19,30.04,12,2,12,0.04
2013-12-22,78,70,66,39,29,9,35,24,8,30.10,30.04,15,3,15,0.63
2013-12-23,69,62,49,43,28,1,39,29,12,30.19,30.04,10,2,10,1.22
2013-12-24,65,45,37,9,2,-8,29,17,10,30.40,30.19,15,3,15,0.04
2013-12-25,49,40,31,2,-4,-11,16,15,14,30.55,30.37,10,1,10,0.04
2013-12-26,60,45,39,7,0,-3,16,15,12,30.40,30.28,9,0,9,0.08
2013-12-27,64,44,36,8,0,-8,19,16,11,30.49,30.34,8,1,8,0.00
2013-12-28,55,44,34,17,2,-6,31,17,13,30.43,30.07,9,1,9,0.67
2013-12-29,70,52,46,29,16,3,38,26,9,30.07,29.84,11,3,12,1.30
2013-12-30,59,50,42,15,8,1,31,19,12,30.19,30.01,9,2,10,0.04
2013-12-31,64,50,42,8,3,-2,19,14,11,30.40,30.19,10,2,10,0.00
2014-1-1,54,47,40,14,3,-2,24,16,13,30.40,30.16,3,0,3,0.00
2014-1-2,54,49,34,28,15,-9,37,26,14,30.19,29.75,22,1,24,0.28